sensor_id;sensor_type;location;lat;lon;timestamp;P1;durP1;ratioP1;P2;durP2;ratioP2
23418;SDS011;11882;42.522;27.458;2024-02-21T00:02:23;3.23;;;2.70;;
23418;SDS011;11882;42.522;27.458;2024-02-21T00:04:50;5.20;;;2.80;;
23418;SDS011;11882;42.522;27.458;2024-02-21T00:07:19;3.70;;;2.80;;
23418;SDS011;11882;42.522;27.458;2024-02-21T00:09:46;3.60;;;3.07;;
23418;SDS011;11882;42.522;27.458;2024-02-21T00:12:13;7.40;;;3.33;;
23418;SDS011;11882;42.522;27.458;2024-02-21T00:14:40;3.70;;;3.30;;
23418;SDS011;11882;42.522;27.458;2024-02-21T00:17:07;6.57;;;3.10;;
23418;SDS011;11882;42.522;27.458;2024-02-21T00:19:34;4.13;;;2.73;;
23418;SDS011;11882;42.522;27.458;2024-02-21T00:22:02;3.73;;;2.70;;
23418;SDS011;11882;42.522;27.458;2024-02-21T00:24:30;3.67;;;3.30;;
23418;SDS011;11882;42.522;27.458;2024-02-21T00:26:58;5.67;;;3.77;;
23418;SDS011;11882;42.522;27.458;2024-02-21T00:29:25;4.73;;;3.43;;
23418;SDS011;11882;42.522;27.458;2024-02-21T00:31:52;4.57;;;3.37;;
23418;SDS011;11882;42.522;27.458;2024-02-21T00:34:19;4.70;;;3.33;;
23418;SDS011;11882;42.522;27.458;2024-02-21T00:36:46;4.13;;;3.03;;
23418;SDS011;11882;42.522;27.458;2024-02-21T00:39:15;6.80;;;3.87;;
23418;SDS011;11882;42.522;27.458;2024-02-21T00:41:43;6.07;;;3.40;;
23418;SDS011;11882;42.522;27.458;2024-02-21T00:44:10;4.80;;;3.47;;
23418;SDS011;11882;42.522;27.458;2024-02-21T00:46:38;6.80;;;3.23;;
23418;SDS011;11882;42.522;27.458;2024-02-21T00:49:05;4.90;;;3.50;;
23418;SDS011;11882;42.522;27.458;2024-02-21T00:51:32;6.63;;;4.27;;
23418;SDS011;11882;42.522;27.458;2024-02-21T00:53:59;7.57;;;4.00;;
23418;SDS011;11882;42.522;27.458;2024-02-21T00:56:26;3.63;;;2.77;;
23418;SDS011;11882;42.522;27.458;2024-02-21T00:58:56;5.57;;;3.63;;
23418;SDS011;11882;42.522;27.458;2024-02-21T01:01:23;5.20;;;3.43;;
23418;SDS011;11882;42.522;27.458;2024-02-21T01:03:51;5.40;;;3.30;;
23418;SDS011;11882;42.522;27.458;2024-02-21T01:06:19;5.07;;;3.03;;
23418;SDS011;11882;42.522;27.458;2024-02-21T01:08:46;5.37;;;3.40;;
23418;SDS011;11882;42.522;27.458;2024-02-21T01:11:14;4.97;;;3.30;;
23418;SDS011;11882;42.522;27.458;2024-02-21T01:13:41;3.67;;;2.90;;
23418;SDS011;11882;42.522;27.458;2024-02-21T01:16:10;3.37;;;2.63;;
23418;SDS011;11882;42.522;27.458;2024-02-21T01:18:37;4.23;;;3.00;;
23418;SDS011;11882;42.522;27.458;2024-02-21T01:21:06;2.43;;;2.23;;
23418;SDS011;11882;42.522;27.458;2024-02-21T01:23:33;4.13;;;3.07;;
23418;SDS011;11882;42.522;27.458;2024-02-21T01:26:01;6.23;;;2.97;;
23418;SDS011;11882;42.522;27.458;2024-02-21T01:28:28;2.93;;;2.60;;
23418;SDS011;11882;42.522;27.458;2024-02-21T01:30:55;4.57;;;2.40;;
23418;SDS011;11882;42.522;27.458;2024-02-21T01:33:24;2.77;;;2.30;;
23418;SDS011;11882;42.522;27.458;2024-02-21T01:35:52;3.50;;;2.40;;
23418;SDS011;11882;42.522;27.458;2024-02-21T01:38:19;3.57;;;2.80;;
23418;SDS011;11882;42.522;27.458;2024-02-21T01:40:46;5.43;;;3.00;;
23418;SDS011;11882;42.522;27.458;2024-02-21T01:43:16;3.00;;;2.63;;
23418;SDS011;11882;42.522;27.458;2024-02-21T01:45:46;3.93;;;3.07;;
23418;SDS011;11882;42.522;27.458;2024-02-21T01:48:16;3.37;;;2.50;;
23418;SDS011;11882;42.522;27.458;2024-02-21T01:50:45;2.97;;;2.67;;
23418;SDS011;11882;42.522;27.458;2024-02-21T01:53:13;4.83;;;3.77;;
23418;SDS011;11882;42.522;27.458;2024-02-21T01:55:44;4.80;;;3.13;;
23418;SDS011;11882;42.522;27.458;2024-02-21T01:58:12;5.00;;;3.60;;
23418;SDS011;11882;42.522;27.458;2024-02-21T02:00:40;3.40;;;3.00;;
23418;SDS011;11882;42.522;27.458;2024-02-21T02:03:09;4.90;;;3.23;;
23418;SDS011;11882;42.522;27.458;2024-02-21T02:05:42;4.60;;;3.37;;
23418;SDS011;11882;42.522;27.458;2024-02-21T02:08:12;4.57;;;3.70;;
23418;SDS011;11882;42.522;27.458;2024-02-21T02:10:40;3.67;;;2.93;;
23418;SDS011;11882;42.522;27.458;2024-02-21T02:13:08;5.20;;;3.47;;
23418;SDS011;11882;42.522;27.458;2024-02-21T02:15:39;3.90;;;3.37;;
23418;SDS011;11882;42.522;27.458;2024-02-21T02:18:07;7.47;;;3.60;;
23418;SDS011;11882;42.522;27.458;2024-02-21T02:20:34;4.37;;;2.90;;
23418;SDS011;11882;42.522;27.458;2024-02-21T02:23:06;5.27;;;2.87;;
23418;SDS011;11882;42.522;27.458;2024-02-21T02:25:36;5.13;;;2.73;;
23418;SDS011;11882;42.522;27.458;2024-02-21T02:28:04;4.63;;;3.23;;
23418;SDS011;11882;42.522;27.458;2024-02-21T02:30:32;5.73;;;4.67;;
23418;SDS011;11882;42.522;27.458;2024-02-21T02:33:01;5.83;;;3.03;;
23418;SDS011;11882;42.522;27.458;2024-02-21T02:35:28;3.30;;;2.97;;
23418;SDS011;11882;42.522;27.458;2024-02-21T02:37:56;4.73;;;3.57;;
23418;SDS011;11882;42.522;27.458;2024-02-21T02:40:23;2.97;;;2.60;;
23418;SDS011;11882;42.522;27.458;2024-02-21T02:42:52;3.87;;;3.23;;
23418;SDS011;11882;42.522;27.458;2024-02-21T02:45:20;4.57;;;3.17;;
23418;SDS011;11882;42.522;27.458;2024-02-21T02:47:48;4.90;;;2.97;;
23418;SDS011;11882;42.522;27.458;2024-02-21T02:50:16;3.67;;;2.50;;
23418;SDS011;11882;42.522;27.458;2024-02-21T02:52:43;3.33;;;2.30;;
23418;SDS011;11882;42.522;27.458;2024-02-21T02:55:10;5.13;;;3.07;;
23418;SDS011;11882;42.522;27.458;2024-02-21T02:57:38;3.30;;;2.73;;
23418;SDS011;11882;42.522;27.458;2024-02-21T03:00:09;2.40;;;2.10;;
23418;SDS011;11882;42.522;27.458;2024-02-21T03:02:38;3.23;;;2.20;;
23418;SDS011;11882;42.522;27.458;2024-02-21T03:05:11;1.87;;;1.70;;
23418;SDS011;11882;42.522;27.458;2024-02-21T03:07:40;4.87;;;3.23;;
23418;SDS011;11882;42.522;27.458;2024-02-21T03:10:08;2.37;;;2.17;;
23418;SDS011;11882;42.522;27.458;2024-02-21T03:12:35;2.97;;;2.63;;
23418;SDS011;11882;42.522;27.458;2024-02-21T03:15:03;3.47;;;2.83;;
23418;SDS011;11882;42.522;27.458;2024-02-21T03:17:32;2.57;;;2.00;;
23418;SDS011;11882;42.522;27.458;2024-02-21T03:20:00;2.60;;;2.33;;
23418;SDS011;11882;42.522;27.458;2024-02-21T03:22:30;4.53;;;2.90;;
23418;SDS011;11882;42.522;27.458;2024-02-21T03:24:57;9.77;;;2.97;;
23418;SDS011;11882;42.522;27.458;2024-02-21T03:27:25;6.00;;;3.77;;
23418;SDS011;11882;42.522;27.458;2024-02-21T03:29:52;4.73;;;3.33;;
23418;SDS011;11882;42.522;27.458;2024-02-21T03:32:19;5.33;;;3.40;;
23418;SDS011;11882;42.522;27.458;2024-02-21T03:34:48;3.63;;;2.93;;
23418;SDS011;11882;42.522;27.458;2024-02-21T03:37:15;3.93;;;3.10;;
23418;SDS011;11882;42.522;27.458;2024-02-21T03:39:42;3.77;;;3.03;;
23418;SDS011;11882;42.522;27.458;2024-02-21T03:42:10;3.00;;;2.43;;
23418;SDS011;11882;42.522;27.458;2024-02-21T03:44:37;3.43;;;2.97;;
23418;SDS011;11882;42.522;27.458;2024-02-21T03:47:04;4.83;;;3.63;;
23418;SDS011;11882;42.522;27.458;2024-02-21T03:49:31;3.50;;;3.20;;
23418;SDS011;11882;42.522;27.458;2024-02-21T03:52:00;6.23;;;3.53;;
23418;SDS011;11882;42.522;27.458;2024-02-21T03:54:27;7.57;;;3.77;;
23418;SDS011;11882;42.522;27.458;2024-02-21T03:56:54;4.10;;;3.47;;
23418;SDS011;11882;42.522;27.458;2024-02-21T03:59:22;5.60;;;3.30;;
23418;SDS011;11882;42.522;27.458;2024-02-21T04:01:51;5.07;;;4.10;;
23418;SDS011;11882;42.522;27.458;2024-02-21T04:04:19;13.47;;;3.80;;
23418;SDS011;11882;42.522;27.458;2024-02-21T04:06:46;4.13;;;3.43;;
23418;SDS011;11882;42.522;27.458;2024-02-21T04:09:15;5.17;;;3.23;;
23418;SDS011;11882;42.522;27.458;2024-02-21T04:11:42;7.50;;;4.87;;
23418;SDS011;11882;42.522;27.458;2024-02-21T04:14:10;7.80;;;3.77;;
23418;SDS011;11882;42.522;27.458;2024-02-21T04:16:37;5.43;;;3.50;;
23418;SDS011;11882;42.522;27.458;2024-02-21T04:19:05;3.20;;;2.90;;
23418;SDS011;11882;42.522;27.458;2024-02-21T04:21:32;4.07;;;3.67;;
23418;SDS011;11882;42.522;27.458;2024-02-21T04:23:59;2.97;;;2.67;;
23418;SDS011;11882;42.522;27.458;2024-02-21T04:26:30;5.20;;;3.30;;
23418;SDS011;11882;42.522;27.458;2024-02-21T04:28:57;6.43;;;3.53;;
23418;SDS011;11882;42.522;27.458;2024-02-21T04:31:24;3.47;;;3.17;;
23418;SDS011;11882;42.522;27.458;2024-02-21T04:33:51;4.97;;;3.20;;
23418;SDS011;11882;42.522;27.458;2024-02-21T04:36:18;5.93;;;4.10;;
23418;SDS011;11882;42.522;27.458;2024-02-21T04:38:46;5.37;;;3.90;;
23418;SDS011;11882;42.522;27.458;2024-02-21T04:41:14;5.43;;;3.50;;
23418;SDS011;11882;42.522;27.458;2024-02-21T04:43:42;7.93;;;3.37;;
23418;SDS011;11882;42.522;27.458;2024-02-21T04:46:10;5.07;;;4.23;;
23418;SDS011;11882;42.522;27.458;2024-02-21T04:48:37;4.67;;;3.40;;
23418;SDS011;11882;42.522;27.458;2024-02-21T04:51:04;5.63;;;4.10;;
23418;SDS011;11882;42.522;27.458;2024-02-21T04:53:31;6.37;;;3.23;;
23418;SDS011;11882;42.522;27.458;2024-02-21T04:55:58;5.60;;;4.63;;
23418;SDS011;11882;42.522;27.458;2024-02-21T04:58:25;4.13;;;3.47;;
23418;SDS011;11882;42.522;27.458;2024-02-21T05:00:54;5.73;;;3.73;;
23418;SDS011;11882;42.522;27.458;2024-02-21T05:03:22;5.17;;;3.60;;
23418;SDS011;11882;42.522;27.458;2024-02-21T05:05:49;6.80;;;4.20;;
23418;SDS011;11882;42.522;27.458;2024-02-21T05:08:16;4.40;;;3.97;;
23418;SDS011;11882;42.522;27.458;2024-02-21T05:10:43;7.60;;;4.13;;
23418;SDS011;11882;42.522;27.458;2024-02-21T05:13:10;4.20;;;3.80;;
23418;SDS011;11882;42.522;27.458;2024-02-21T05:15:38;9.93;;;4.17;;
23418;SDS011;11882;42.522;27.458;2024-02-21T05:18:07;6.60;;;4.77;;
23418;SDS011;11882;42.522;27.458;2024-02-21T05:20:34;6.23;;;5.23;;
23418;SDS011;11882;42.522;27.458;2024-02-21T05:23:01;8.80;;;5.30;;
23418;SDS011;11882;42.522;27.458;2024-02-21T05:25:28;5.67;;;4.40;;
23418;SDS011;11882;42.522;27.458;2024-02-21T05:27:55;5.33;;;4.20;;
23418;SDS011;11882;42.522;27.458;2024-02-21T05:30:27;8.17;;;6.30;;
23418;SDS011;11882;42.522;27.458;2024-02-21T05:32:54;8.27;;;5.43;;
23418;SDS011;11882;42.522;27.458;2024-02-21T05:35:26;7.53;;;6.23;;
23418;SDS011;11882;42.522;27.458;2024-02-21T05:37:53;8.90;;;5.70;;
23418;SDS011;11882;42.522;27.458;2024-02-21T05:40:21;9.53;;;6.03;;
23418;SDS011;11882;42.522;27.458;2024-02-21T05:42:48;6.07;;;4.47;;
23418;SDS011;11882;42.522;27.458;2024-02-21T05:45:16;17.40;;;5.07;;
23418;SDS011;11882;42.522;27.458;2024-02-21T05:47:43;6.10;;;4.60;;
23418;SDS011;11882;42.522;27.458;2024-02-21T05:50:11;9.93;;;5.50;;
23418;SDS011;11882;42.522;27.458;2024-02-21T05:52:39;5.40;;;4.20;;
23418;SDS011;11882;42.522;27.458;2024-02-21T05:55:07;5.47;;;4.03;;
23418;SDS011;11882;42.522;27.458;2024-02-21T05:57:34;6.90;;;5.13;;
23418;SDS011;11882;42.522;27.458;2024-02-21T06:00:03;5.97;;;5.00;;
23418;SDS011;11882;42.522;27.458;2024-02-21T06:02:31;9.10;;;5.40;;
23418;SDS011;11882;42.522;27.458;2024-02-21T06:04:59;11.53;;;6.40;;
23418;SDS011;11882;42.522;27.458;2024-02-21T06:07:26;8.23;;;6.33;;
23418;SDS011;11882;42.522;27.458;2024-02-21T06:09:55;11.23;;;7.60;;
23418;SDS011;11882;42.522;27.458;2024-02-21T06:12:22;9.03;;;6.07;;
23418;SDS011;11882;42.522;27.458;2024-02-21T06:14:49;9.43;;;6.10;;
23418;SDS011;11882;42.522;27.458;2024-02-21T06:17:16;7.17;;;6.13;;
23418;SDS011;11882;42.522;27.458;2024-02-21T06:19:43;7.27;;;6.43;;
23418;SDS011;11882;42.522;27.458;2024-02-21T06:22:11;6.87;;;5.33;;
23418;SDS011;11882;42.522;27.458;2024-02-21T06:24:38;7.50;;;4.60;;
23418;SDS011;11882;42.522;27.458;2024-02-21T06:27:08;6.37;;;4.93;;
23418;SDS011;11882;42.522;27.458;2024-02-21T06:29:36;5.77;;;5.13;;
23418;SDS011;11882;42.522;27.458;2024-02-21T06:32:04;8.00;;;4.10;;
23418;SDS011;11882;42.522;27.458;2024-02-21T06:34:31;3.67;;;3.13;;
23418;SDS011;11882;42.522;27.458;2024-02-21T06:36:59;8.30;;;4.73;;
23418;SDS011;11882;42.522;27.458;2024-02-21T06:39:26;5.90;;;4.87;;
23418;SDS011;11882;42.522;27.458;2024-02-21T06:41:54;9.30;;;6.53;;
23418;SDS011;11882;42.522;27.458;2024-02-21T06:44:23;8.53;;;6.20;;
23418;SDS011;11882;42.522;27.458;2024-02-21T06:46:50;14.93;;;8.20;;
23418;SDS011;11882;42.522;27.458;2024-02-21T06:49:17;11.90;;;7.87;;
23418;SDS011;11882;42.522;27.458;2024-02-21T06:51:44;10.43;;;7.97;;
23418;SDS011;11882;42.522;27.458;2024-02-21T06:54:12;3.20;;;2.90;;
23418;SDS011;11882;42.522;27.458;2024-02-21T06:56:40;3.43;;;3.17;;
23418;SDS011;11882;42.522;27.458;2024-02-21T06:59:07;8.80;;;5.60;;
23418;SDS011;11882;42.522;27.458;2024-02-21T07:01:36;4.87;;;4.23;;
23418;SDS011;11882;42.522;27.458;2024-02-21T07:04:03;7.33;;;5.33;;
23418;SDS011;11882;42.522;27.458;2024-02-21T07:06:30;9.90;;;6.87;;
23418;SDS011;11882;42.522;27.458;2024-02-21T07:08:57;7.53;;;6.30;;
23418;SDS011;11882;42.522;27.458;2024-02-21T07:11:24;7.07;;;5.63;;
23418;SDS011;11882;42.522;27.458;2024-02-21T07:13:52;9.97;;;7.53;;
23418;SDS011;11882;42.522;27.458;2024-02-21T07:16:19;8.17;;;6.03;;
23418;SDS011;11882;42.522;27.458;2024-02-21T07:18:47;9.47;;;5.93;;
23418;SDS011;11882;42.522;27.458;2024-02-21T07:21:14;8.77;;;6.80;;
23418;SDS011;11882;42.522;27.458;2024-02-21T07:23:42;7.23;;;6.27;;
23418;SDS011;11882;42.522;27.458;2024-02-21T07:26:09;8.73;;;6.50;;
23418;SDS011;11882;42.522;27.458;2024-02-21T07:28:36;7.53;;;5.77;;
23418;SDS011;11882;42.522;27.458;2024-02-21T07:31:03;7.87;;;5.80;;
23418;SDS011;11882;42.522;27.458;2024-02-21T07:33:30;11.37;;;6.33;;
23418;SDS011;11882;42.522;27.458;2024-02-21T07:35:59;7.03;;;5.33;;
23418;SDS011;11882;42.522;27.458;2024-02-21T07:38:26;8.67;;;6.40;;
23418;SDS011;11882;42.522;27.458;2024-02-21T07:40:53;8.97;;;7.07;;
23418;SDS011;11882;42.522;27.458;2024-02-21T07:43:21;5.80;;;4.67;;
23418;SDS011;11882;42.522;27.458;2024-02-21T07:45:48;5.60;;;4.57;;
23418;SDS011;11882;42.522;27.458;2024-02-21T07:48:15;8.90;;;6.30;;
23418;SDS011;11882;42.522;27.458;2024-02-21T07:50:44;5.90;;;4.87;;
23418;SDS011;11882;42.522;27.458;2024-02-21T07:53:14;7.00;;;5.53;;
23418;SDS011;11882;42.522;27.458;2024-02-21T07:55:41;5.93;;;5.30;;
23418;SDS011;11882;42.522;27.458;2024-02-21T07:58:09;13.83;;;7.37;;
23418;SDS011;11882;42.522;27.458;2024-02-21T08:00:36;14.87;;;10.00;;
23418;SDS011;11882;42.522;27.458;2024-02-21T08:03:03;8.97;;;7.23;;
23418;SDS011;11882;42.522;27.458;2024-02-21T08:05:30;12.00;;;8.20;;
23418;SDS011;11882;42.522;27.458;2024-02-21T08:08:01;13.23;;;10.87;;
23418;SDS011;11882;42.522;27.458;2024-02-21T08:10:30;13.97;;;9.93;;
23418;SDS011;11882;42.522;27.458;2024-02-21T08:12:57;15.47;;;8.97;;
23418;SDS011;11882;42.522;27.458;2024-02-21T08:15:24;15.17;;;8.77;;
23418;SDS011;11882;42.522;27.458;2024-02-21T08:17:54;9.67;;;8.17;;
23418;SDS011;11882;42.522;27.458;2024-02-21T08:20:24;13.00;;;8.60;;
23418;SDS011;11882;42.522;27.458;2024-02-21T08:22:52;13.30;;;8.80;;
23418;SDS011;11882;42.522;27.458;2024-02-21T08:25:19;13.93;;;8.60;;
23418;SDS011;11882;42.522;27.458;2024-02-21T08:27:47;10.93;;;6.87;;
23418;SDS011;11882;42.522;27.458;2024-02-21T08:30:16;8.77;;;6.37;;
23418;SDS011;11882;42.522;27.458;2024-02-21T08:32:44;7.50;;;5.27;;
23418;SDS011;11882;42.522;27.458;2024-02-21T08:35:11;8.77;;;6.47;;
23418;SDS011;11882;42.522;27.458;2024-02-21T08:37:38;8.60;;;5.83;;
23418;SDS011;11882;42.522;27.458;2024-02-21T08:40:06;7.90;;;5.07;;
23418;SDS011;11882;42.522;27.458;2024-02-21T08:42:34;9.00;;;5.40;;
23418;SDS011;11882;42.522;27.458;2024-02-21T08:45:04;7.77;;;5.17;;
23418;SDS011;11882;42.522;27.458;2024-02-21T08:47:32;8.23;;;5.67;;
23418;SDS011;11882;42.522;27.458;2024-02-21T08:50:01;8.33;;;5.40;;
23418;SDS011;11882;42.522;27.458;2024-02-21T08:52:31;7.27;;;5.87;;
23418;SDS011;11882;42.522;27.458;2024-02-21T08:54:58;7.20;;;6.33;;
23418;SDS011;11882;42.522;27.458;2024-02-21T08:57:25;17.17;;;9.10;;
23418;SDS011;11882;42.522;27.458;2024-02-21T08:59:53;10.77;;;7.10;;
23418;SDS011;11882;42.522;27.458;2024-02-21T09:02:22;8.63;;;7.20;;
23418;SDS011;11882;42.522;27.458;2024-02-21T09:04:49;8.77;;;5.40;;
23418;SDS011;11882;42.522;27.458;2024-02-21T09:07:16;4.90;;;3.67;;
23418;SDS011;11882;42.522;27.458;2024-02-21T09:09:44;5.90;;;4.33;;
23418;SDS011;11882;42.522;27.458;2024-02-21T09:12:11;5.90;;;4.90;;
23418;SDS011;11882;42.522;27.458;2024-02-21T09:14:40;5.77;;;4.73;;
23418;SDS011;11882;42.522;27.458;2024-02-21T09:17:07;7.23;;;5.33;;
23418;SDS011;11882;42.522;27.458;2024-02-21T09:19:36;7.57;;;5.77;;
23418;SDS011;11882;42.522;27.458;2024-02-21T09:22:03;10.50;;;8.23;;
23418;SDS011;11882;42.522;27.458;2024-02-21T09:24:31;24.73;;;8.13;;
23418;SDS011;11882;42.522;27.458;2024-02-21T09:26:58;10.93;;;8.03;;
23418;SDS011;11882;42.522;27.458;2024-02-21T09:29:25;10.00;;;6.93;;
23418;SDS011;11882;42.522;27.458;2024-02-21T09:31:52;9.17;;;6.67;;
23418;SDS011;11882;42.522;27.458;2024-02-21T09:34:19;11.73;;;7.67;;
23418;SDS011;11882;42.522;27.458;2024-02-21T09:36:48;14.63;;;10.27;;
23418;SDS011;11882;42.522;27.458;2024-02-21T09:39:15;14.53;;;10.53;;
23418;SDS011;11882;42.522;27.458;2024-02-21T09:41:44;11.77;;;8.40;;
23418;SDS011;11882;42.522;27.458;2024-02-21T09:44:15;11.30;;;7.17;;
23418;SDS011;11882;42.522;27.458;2024-02-21T09:46:44;13.97;;;8.07;;
23418;SDS011;11882;42.522;27.458;2024-02-21T09:49:21;9.30;;;6.70;;
23418;SDS011;11882;42.522;27.458;2024-02-21T09:51:58;12.43;;;6.87;;
23418;SDS011;11882;42.522;27.458;2024-02-21T09:54:32;8.40;;;6.27;;
23418;SDS011;11882;42.522;27.458;2024-02-21T09:57:00;7.90;;;5.90;;
23418;SDS011;11882;42.522;27.458;2024-02-21T09:59:28;9.30;;;6.70;;
23418;SDS011;11882;42.522;27.458;2024-02-21T10:01:56;12.57;;;7.10;;
23418;SDS011;11882;42.522;27.458;2024-02-21T10:04:25;6.93;;;5.20;;
23418;SDS011;11882;42.522;27.458;2024-02-21T10:06:53;7.43;;;5.60;;
23418;SDS011;11882;42.522;27.458;2024-02-21T10:09:22;9.33;;;6.37;;
23418;SDS011;11882;42.522;27.458;2024-02-21T10:11:52;6.90;;;5.90;;
23418;SDS011;11882;42.522;27.458;2024-02-21T10:14:20;9.23;;;5.97;;
23418;SDS011;11882;42.522;27.458;2024-02-21T10:16:48;6.83;;;5.70;;
23418;SDS011;11882;42.522;27.458;2024-02-21T10:19:17;11.27;;;7.20;;
23418;SDS011;11882;42.522;27.458;2024-02-21T10:21:57;11.67;;;6.30;;
23418;SDS011;11882;42.522;27.458;2024-02-21T10:24:30;10.03;;;6.40;;
23418;SDS011;11882;42.522;27.458;2024-02-21T10:26:59;10.17;;;5.80;;
23418;SDS011;11882;42.522;27.458;2024-02-21T10:29:28;8.70;;;6.00;;
23418;SDS011;11882;42.522;27.458;2024-02-21T10:32:03;10.20;;;6.20;;
23418;SDS011;11882;42.522;27.458;2024-02-21T10:34:32;8.63;;;6.60;;
23418;SDS011;11882;42.522;27.458;2024-02-21T10:36:59;11.60;;;7.20;;
23418;SDS011;11882;42.522;27.458;2024-02-21T10:39:30;12.40;;;6.73;;
23418;SDS011;11882;42.522;27.458;2024-02-21T10:41:59;7.43;;;5.00;;
23418;SDS011;11882;42.522;27.458;2024-02-21T10:44:28;9.70;;;6.87;;
23418;SDS011;11882;42.522;27.458;2024-02-21T10:46:56;8.73;;;6.10;;
23418;SDS011;11882;42.522;27.458;2024-02-21T10:49:24;7.73;;;6.03;;
23418;SDS011;11882;42.522;27.458;2024-02-21T10:51:54;8.77;;;6.50;;
23418;SDS011;11882;42.522;27.458;2024-02-21T10:54:43;7.50;;;5.50;;
23418;SDS011;11882;42.522;27.458;2024-02-21T10:57:12;7.97;;;5.40;;
23418;SDS011;11882;42.522;27.458;2024-02-21T10:59:40;7.70;;;5.70;;
23418;SDS011;11882;42.522;27.458;2024-02-21T11:02:09;9.27;;;5.27;;
23418;SDS011;11882;42.522;27.458;2024-02-21T11:04:36;6.70;;;5.00;;
23418;SDS011;11882;42.522;27.458;2024-02-21T11:07:05;8.80;;;6.03;;
23418;SDS011;11882;42.522;27.458;2024-02-21T11:09:32;8.23;;;6.27;;
23418;SDS011;11882;42.522;27.458;2024-02-21T11:12:03;9.90;;;5.20;;
23418;SDS011;11882;42.522;27.458;2024-02-21T11:14:31;8.00;;;5.73;;
23418;SDS011;11882;42.522;27.458;2024-02-21T11:17:01;8.40;;;6.20;;
23418;SDS011;11882;42.522;27.458;2024-02-21T11:19:29;8.43;;;5.73;;
23418;SDS011;11882;42.522;27.458;2024-02-21T11:21:57;9.40;;;6.27;;
23418;SDS011;11882;42.522;27.458;2024-02-21T11:24:26;8.87;;;7.60;;
23418;SDS011;11882;42.522;27.458;2024-02-21T11:26:54;7.53;;;6.10;;
23418;SDS011;11882;42.522;27.458;2024-02-21T11:29:25;5.77;;;4.80;;
23418;SDS011;11882;42.522;27.458;2024-02-21T11:31:54;7.13;;;5.37;;
23418;SDS011;11882;42.522;27.458;2024-02-21T11:34:21;7.73;;;5.33;;
23418;SDS011;11882;42.522;27.458;2024-02-21T11:36:49;10.90;;;6.43;;
23418;SDS011;11882;42.522;27.458;2024-02-21T11:39:20;7.63;;;5.53;;
23418;SDS011;11882;42.522;27.458;2024-02-21T11:41:58;13.37;;;5.60;;
23418;SDS011;11882;42.522;27.458;2024-02-21T11:44:29;8.80;;;5.80;;
23418;SDS011;11882;42.522;27.458;2024-02-21T11:46:56;6.27;;;5.17;;
23418;SDS011;11882;42.522;27.458;2024-02-21T11:49:24;10.23;;;7.63;;
23418;SDS011;11882;42.522;27.458;2024-02-21T11:51:57;10.40;;;7.00;;
23418;SDS011;11882;42.522;27.458;2024-02-21T11:54:26;6.97;;;5.53;;
23418;SDS011;11882;42.522;27.458;2024-02-21T11:56:53;8.87;;;5.90;;
23418;SDS011;11882;42.522;27.458;2024-02-21T11:59:20;7.30;;;5.70;;
23418;SDS011;11882;42.522;27.458;2024-02-21T12:01:49;6.43;;;5.50;;
23418;SDS011;11882;42.522;27.458;2024-02-21T12:04:17;6.77;;;5.30;;
23418;SDS011;11882;42.522;27.458;2024-02-21T12:06:45;5.73;;;4.40;;
23418;SDS011;11882;42.522;27.458;2024-02-21T12:09:13;8.63;;;5.23;;
23418;SDS011;11882;42.522;27.458;2024-02-21T12:11:41;8.63;;;5.60;;
23418;SDS011;11882;42.522;27.458;2024-02-21T12:14:08;8.33;;;5.87;;
23418;SDS011;11882;42.522;27.458;2024-02-21T12:16:36;6.93;;;5.40;;
23418;SDS011;11882;42.522;27.458;2024-02-21T12:19:05;7.33;;;6.00;;
23418;SDS011;11882;42.522;27.458;2024-02-21T12:21:33;6.50;;;5.50;;
23418;SDS011;11882;42.522;27.458;2024-02-21T12:24:11;8.07;;;5.53;;
23418;SDS011;11882;42.522;27.458;2024-02-21T12:26:38;6.57;;;4.57;;
23418;SDS011;11882;42.522;27.458;2024-02-21T12:29:05;4.57;;;4.07;;
23418;SDS011;11882;42.522;27.458;2024-02-21T12:31:34;5.63;;;4.87;;
23418;SDS011;11882;42.522;27.458;2024-02-21T12:34:01;7.13;;;5.10;;
23418;SDS011;11882;42.522;27.458;2024-02-21T12:36:30;5.47;;;4.73;;
23418;SDS011;11882;42.522;27.458;2024-02-21T12:38:57;6.57;;;5.20;;
23418;SDS011;11882;42.522;27.458;2024-02-21T12:41:27;7.60;;;5.30;;
23418;SDS011;11882;42.522;27.458;2024-02-21T12:43:55;4.93;;;4.43;;
23418;SDS011;11882;42.522;27.458;2024-02-21T12:46:22;7.03;;;5.27;;
23418;SDS011;11882;42.522;27.458;2024-02-21T12:48:50;6.20;;;5.23;;
23418;SDS011;11882;42.522;27.458;2024-02-21T12:51:17;5.77;;;4.63;;
23418;SDS011;11882;42.522;27.458;2024-02-21T12:53:47;6.07;;;4.87;;
23418;SDS011;11882;42.522;27.458;2024-02-21T12:56:15;6.57;;;5.37;;
23418;SDS011;11882;42.522;27.458;2024-02-21T12:58:42;6.63;;;4.87;;
23418;SDS011;11882;42.522;27.458;2024-02-21T13:01:10;5.37;;;4.27;;
23418;SDS011;11882;42.522;27.458;2024-02-21T13:03:37;5.60;;;4.67;;
23418;SDS011;11882;42.522;27.458;2024-02-21T13:06:04;7.27;;;5.27;;
23418;SDS011;11882;42.522;27.458;2024-02-21T13:08:32;6.43;;;4.27;;
23418;SDS011;11882;42.522;27.458;2024-02-21T13:11:02;5.80;;;4.60;;
23418;SDS011;11882;42.522;27.458;2024-02-21T13:13:29;6.17;;;4.97;;
23418;SDS011;11882;42.522;27.458;2024-02-21T13:15:57;5.97;;;4.73;;
23418;SDS011;11882;42.522;27.458;2024-02-21T13:18:24;9.83;;;5.90;;
23418;SDS011;11882;42.522;27.458;2024-02-21T13:20:51;6.93;;;5.37;;
23418;SDS011;11882;42.522;27.458;2024-02-21T13:23:19;7.53;;;5.63;;
23418;SDS011;11882;42.522;27.458;2024-02-21T13:25:47;6.77;;;5.93;;
23418;SDS011;11882;42.522;27.458;2024-02-21T13:28:16;8.93;;;6.33;;
23418;SDS011;11882;42.522;27.458;2024-02-21T13:30:43;10.00;;;6.07;;
23418;SDS011;11882;42.522;27.458;2024-02-21T13:33:10;10.23;;;5.63;;
23418;SDS011;11882;42.522;27.458;2024-02-21T13:35:37;7.40;;;5.63;;
23418;SDS011;11882;42.522;27.458;2024-02-21T13:38:04;8.93;;;5.73;;
23418;SDS011;11882;42.522;27.458;2024-02-21T13:40:32;7.70;;;5.50;;
23418;SDS011;11882;42.522;27.458;2024-02-21T13:42:59;7.00;;;5.80;;
23418;SDS011;11882;42.522;27.458;2024-02-21T13:45:28;8.20;;;5.73;;
23418;SDS011;11882;42.522;27.458;2024-02-21T13:47:56;9.03;;;6.53;;
23418;SDS011;11882;42.522;27.458;2024-02-21T13:50:27;7.50;;;5.97;;
23418;SDS011;11882;42.522;27.458;2024-02-21T13:52:57;5.60;;;4.80;;
23418;SDS011;11882;42.522;27.458;2024-02-21T13:55:25;9.63;;;6.47;;
23418;SDS011;11882;42.522;27.458;2024-02-21T13:57:53;9.23;;;6.47;;
23418;SDS011;11882;42.522;27.458;2024-02-21T14:00:20;9.10;;;6.10;;
23418;SDS011;11882;42.522;27.458;2024-02-21T14:02:49;11.23;;;7.23;;
23418;SDS011;11882;42.522;27.458;2024-02-21T14:05:16;10.50;;;6.93;;
23418;SDS011;11882;42.522;27.458;2024-02-21T14:07:43;8.97;;;6.57;;
23418;SDS011;11882;42.522;27.458;2024-02-21T14:10:10;9.47;;;6.20;;
23418;SDS011;11882;42.522;27.458;2024-02-21T14:12:38;8.20;;;5.50;;
23418;SDS011;11882;42.522;27.458;2024-02-21T14:15:05;6.97;;;5.77;;
23418;SDS011;11882;42.522;27.458;2024-02-21T14:17:34;6.73;;;5.80;;
23418;SDS011;11882;42.522;27.458;2024-02-21T14:20:03;7.73;;;5.83;;
23418;SDS011;11882;42.522;27.458;2024-02-21T14:22:31;7.63;;;5.70;;
23418;SDS011;11882;42.522;27.458;2024-02-21T14:24:58;8.77;;;5.63;;
23418;SDS011;11882;42.522;27.458;2024-02-21T14:27:25;6.70;;;5.30;;
23418;SDS011;11882;42.522;27.458;2024-02-21T14:29:53;9.20;;;5.20;;
23418;SDS011;11882;42.522;27.458;2024-02-21T14:32:20;8.40;;;5.50;;
23418;SDS011;11882;42.522;27.458;2024-02-21T14:34:47;7.43;;;5.67;;
23418;SDS011;11882;42.522;27.458;2024-02-21T14:37:16;8.80;;;4.60;;
23418;SDS011;11882;42.522;27.458;2024-02-21T14:39:43;9.53;;;5.57;;